Time;durP1;ratioP1;P1;durP2;ratioP2;P2;SDS_P1;SDS_P2;PMS_P1;PMS_P2;Temp;Humidity;BMP_temperature;BMP_pressure;BME280_temperature;BME280_humidity;BME280_pressure;Samples;Min_cycle;Max_cycle;Signal;HPM_P1;HPM_P2
2022/12/28 00:02:13;;;;;;;;;;;;;;;27.01;27.49;101697.66;5076896;28;1897;-20
2022/12/28 00:04:38;;;;;;;;;;;;;;;26.94;27.66;101702.00;5077371;28;1194;-20
2022/12/28 00:07:04;;;;;;;;;;;;;;;27.11;27.36;101707.53;5077310;28;894;-20
2022/12/28 00:09:29;;;;;;;;;;;;;;;27.82;26.38;101710.06;5077308;28;1226;-20
2022/12/28 00:11:54;;;;;;;;;;;;;;;27.47;26.93;101730.84;5074616;28;2268;-20
2022/12/28 00:14:19;;;;;;;;;;;;;;;27.49;26.60;101737.75;5077147;28;1124;-20
2022/12/28 00:16:45;;;;;;;;;;;;;;;28.24;25.00;101743.44;5076517;28;1032;-19
2022/12/28 00:19:11;;;;;;;;;;;;;;;28.43;24.99;101754.13;5076738;28;1446;-20
2022/12/28 00:21:36;;;;;;;;;;;;;;;28.09;25.83;101753.22;5076885;28;1902;-20
2022/12/28 00:24:02;;;;;;;;;;;;;;;28.29;25.35;101750.22;5077221;28;1119;-20
2022/12/28 00:26:28;;;;;;;;;;;;;;;28.51;24.86;101766.84;5077207;28;1067;-20
2022/12/28 00:28:53;;;;;;;;;;;;;;;28.42;24.85;101766.00;5076324;28;1040;-20
2022/12/28 00:31:18;;;;;;;;;;;;;;;28.16;25.53;101767.75;5076743;28;852;-20
2022/12/28 00:33:43;;;;;;;;;;;;;;;28.63;24.67;101778.19;5076748;28;1262;-19
2022/12/28 00:36:10;;;;;;;;;;;;;;;28.22;25.21;101783.34;5076837;28;996;-20
2022/12/28 00:38:37;;;;;;;;;;;;;;;28.07;25.32;101793.97;5058777;28;1118;-21
2022/12/28 00:41:02;;;;;;;;;;;;;;;28.66;24.63;101800.34;5076669;28;1127;-20
2022/12/28 00:43:28;;;;;;;;;;;;;;;28.53;24.47;101792.72;5074816;28;1905;-20
2022/12/28 00:45:53;;;;;;;;;;;;;;;27.66;25.73;101781.06;5076649;28;1191;-20
2022/12/28 00:48:18;;;;;;;;;;;;;;;28.20;25.28;101785.38;5076248;28;980;-20
2022/12/28 00:50:43;;;;;;;;;;;;;;;28.47;25.10;101785.28;5076143;28;1039;-20
2022/12/28 00:53:09;;;;;;;;;;;;;;;28.90;24.20;101774.28;5076450;28;1113;-20
2022/12/28 00:55:34;;;;;;;;;;;;;;;28.62;24.48;101755.69;5067926;28;909;-20
2022/12/28 00:58:00;;;;;;;;;;;;;;;28.46;24.69;101764.66;5076408;28;1011;-20
2022/12/28 01:00:25;;;;;;;;;;;;;;;27.79;25.83;101774.41;5076462;28;1007;-20
2022/12/28 01:02:50;;;;;;;;;;;;;;;27.39;26.17;101775.69;5075462;28;1905;-20
2022/12/28 01:05:16;;;;;;;;;;;;;;;27.86;25.55;101781.72;5076313;28;1039;-20
2022/12/28 01:07:41;;;;;;;;;;;;;;;27.93;25.61;101789.16;5075622;28;1055;-20
2022/12/28 01:10:07;;;;;;;;;;;;;;;28.51;24.68;101796.63;5063202;28;1147;-19
2022/12/28 01:12:32;;;;;;;;;;;;;;;28.58;24.23;101798.50;5069558;28;2444;-20
2022/12/28 01:14:57;;;;;;;;;;;;;;;28.70;24.14;101800.84;5075932;28;1194;-19
2022/12/28 01:17:23;;;;;;;;;;;;;;;28.93;23.94;101803.75;5062179;28;1270;-20
2022/12/28 01:19:48;;;;;;;;;;;;;;;28.52;24.30;101812.69;5075975;28;897;-19
2022/12/28 01:22:13;;;;;;;;;;;;;;;28.05;25.54;101824.88;5076251;28;1972;-20
2022/12/28 01:24:38;;;;;;;;;;;;;;;29.15;24.02;101833.03;5076003;28;1234;-20
2022/12/28 01:27:04;;;;;;;;;;;;;;;29.41;23.45;101829.31;5075737;28;1421;-20
2022/12/28 01:29:29;;;;;;;;;;;;;;;28.60;24.02;101823.53;5075457;28;1028;-20
2022/12/28 01:31:54;;;;;;;;;;;;;;;27.49;25.85;101818.81;5076001;28;888;-20
2022/12/28 01:34:20;;;;;;;;;;;;;;;27.78;25.63;101814.13;5076073;28;1175;-20
2022/12/28 01:36:45;;;;;;;;;;;;;;;27.51;25.88;101819.53;5076011;28;1100;-20
2022/12/28 01:39:10;;;;;;;;;;;;;;;27.58;26.00;101830.53;5076253;28;1110;-20
2022/12/28 01:41:36;;;;;;;;;;;;;;;27.56;25.83;101845.22;5075820;28;1894;-20
2022/12/28 01:44:01;;;;;;;;;;;;;;;28.54;24.35;101847.72;5075243;28;2587;-20
2022/12/28 01:46:37;;;;;;;;;;;;;;;28.42;24.04;101855.28;5075924;28;1187;-20
2022/12/28 01:49:04;;;;;;;;;;;;;;;27.95;24.84;101869.13;5045049;28;1100;-20
2022/12/28 01:51:30;;;;;;;;;;;;;;;27.34;26.17;101882.56;5075444;28;1099;-19
2022/12/28 01:53:58;;;;;;;;;;;;;;;26.94;26.78;101876.63;5075392;28;1108;-19
2022/12/28 01:56:23;;;;;;;;;;;;;;;27.19;26.46;101877.75;5075054;28;890;-20
2022/12/28 01:58:48;;;;;;;;;;;;;;;27.20;26.49;101879.44;5075349;28;1077;-20
2022/12/28 02:01:14;;;;;;;;;;;;;;;27.94;24.89;101883.69;5077388;28;1190;-19
2022/12/28 02:03:39;;;;;;;;;;;;;;;28.18;24.62;101887.47;5079447;28;1964;-20
2022/12/28 02:06:05;;;;;;;;;;;;;;;27.66;25.63;101877.56;5079371;28;1117;-20
2022/12/28 02:08:36;;;;;;;;;;;;;;;27.17;26.80;101882.44;5078797;28;891;-20
2022/12/28 02:11:02;;;;;;;;;;;;;;;27.08;26.67;101878.81;5079175;28;1146;-20
2022/12/28 02:13:27;;;;;;;;;;;;;;;27.52;26.03;101887.94;5054400;28;2702;-20
2022/12/28 02:15:52;;;;;;;;;;;;;;;27.11;26.80;101892.00;5079306;28;1123;-20
2022/12/28 02:18:18;;;;;;;;;;;;;;;28.24;24.61;101894.13;5079301;28;1108;-20
2022/12/28 02:20:49;;;;;;;;;;;;;;;28.31;24.27;101895.13;5079107;28;937;-20
2022/12/28 02:23:32;;;;;;;;;;;;;;;27.40;25.98;101881.94;5079229;28;1914;-20
2022/12/28 02:26:06;;;;;;;;;;;;;;;28.79;23.84;101880.25;5044454;28;1100;-20
2022/12/28 02:28:47;;;;;;;;;;;;;;;28.41;24.10;101881.50;5061534;28;1144;-20
2022/12/28 02:31:31;;;;;;;;;;;;;;;26.72;26.93;101887.72;5078702;28;1135;-20
2022/12/28 02:34:34;;;;;;;;;;;;;;;26.60;27.40;101878.16;5065451;28;1074;-20
2022/12/28 02:37:04;;;;;;;;;;;;;;;26.85;26.87;101876.56;4997216;28;1209;-20
2022/12/28 02:39:34;;;;;;;;;;;;;;;27.21;26.53;101883.81;4981435;28;1049;-20
2022/12/28 02:41:59;;;;;;;;;;;;;;;28.17;24.25;101879.53;5013740;28;2527;-20
2022/12/28 02:50:07;;;;;;;;;;;;;;;27.73;25.56;101889.44;5063466;28;1202;-19
2022/12/28 02:52:42;;;;;;;;;;;;;;;28.30;24.96;101900.72;5078690;28;1000;-20
2022/12/28 02:58:01;;;;;;;;;;;;;;;28.39;24.21;101932.25;5078070;28;1071;-20
2022/12/28 03:00:28;;;;;;;;;;;;;;;27.81;25.29;101921.13;5065564;28;1039;-20
2022/12/28 03:02:56;;;;;;;;;;;;;;;27.66;25.28;101923.50;5078301;28;1960;-20
2022/12/28 03:08:33;;;;;;;;;;;;;;;28.33;24.51;101914.81;5070256;28;1021;-20
2022/12/28 03:11:03;;;;;;;;;;;;;;;27.75;25.25;101934.25;5078133;28;1094;-19
2022/12/28 03:13:43;;;;;;;;;;;;;;;28.15;25.15;101928.38;5059470;28;2570;-20
2022/12/28 03:16:11;;;;;;;;;;;;;;;29.04;23.77;101938.03;5061222;28;1519;-20
2022/12/28 03:32:25;;;;;;;;;;;;;;;28.34;24.04;101959.78;5077563;28;1071;-20
2022/12/28 03:34:51;;;;;;;;;;;;;;;27.94;24.65;101955.84;5077648;28;1088;-20
2022/12/28 03:37:24;;;;;;;;;;;;;;;26.47;27.40;101954.91;5078067;28;1100;-19
2022/12/28 03:39:50;;;;;;;;;;;;;;;26.46;27.33;101969.38;5060224;28;1040;-20
2022/12/28 03:45:11;;;;;;;;;;;;;;;26.86;26.84;101964.63;5076609;28;897;-20
2022/12/28 03:47:36;;;;;;;;;;;;;;;28.07;24.52;101958.09;5059870;28;1214;-20
2022/12/28 03:50:02;;;;;;;;;;;;;;;28.35;24.11;101966.91;5076960;28;1028;-20
2022/12/28 03:52:27;;;;;;;;;;;;;;;27.82;25.01;101969.63;5078070;28;1031;-20
2022/12/28 03:54:53;;;;;;;;;;;;;;;27.90;25.11;101978.78;5059555;28;1083;-20
2022/12/28 03:57:18;;;;;;;;;;;;;;;27.72;25.51;101976.97;5077135;28;906;-20
2022/12/28 03:59:43;;;;;;;;;;;;;;;28.48;23.83;101988.09;5059079;28;1102;-20
2022/12/28 04:02:09;;;;;;;;;;;;;;;28.23;23.89;101998.78;5077303;28;1913;-20
2022/12/28 04:04:34;;;;;;;;;;;;;;;26.74;26.46;101998.25;5077108;28;1036;-20
2022/12/28 04:06:59;;;;;;;;;;;;;;;26.47;27.12;102006.19;5077281;28;1054;-20
2022/12/28 04:09:25;;;;;;;;;;;;;;;27.02;26.29;102000.97;5077115;28;890;-20
2022/12/28 04:11:50;;;;;;;;;;;;;;;27.04;26.26;101998.09;5075102;28;1884;-21
2022/12/28 04:14:15;;;;;;;;;;;;;;;27.85;25.18;102000.88;5071279;28;1119;-20
2022/12/28 04:16:41;;;;;;;;;;;;;;;28.35;24.39;102001.22;5077035;28;1206;-20
2022/12/28 04:19:06;;;;;;;;;;;;;;;28.23;24.04;102003.31;5076763;28;1193;-20
2022/12/28 04:21:31;;;;;;;;;;;;;;;27.89;25.44;102007.69;5076409;28;1910;-20
2022/12/28 04:23:57;;;;;;;;;;;;;;;28.74;23.87;102008.00;5076709;28;1187;-20
2022/12/28 04:26:22;;;;;;;;;;;;;;;28.32;23.83;102007.78;5076784;28;1134;-20
2022/12/28 04:28:47;;;;;;;;;;;;;;;28.06;24.50;102011.34;5076361;28;1036;-20
2022/12/28 04:31:12;;;;;;;;;;;;;;;26.60;26.92;102016.63;5076818;28;1064;-19
2022/12/28 04:33:38;;;;;;;;;;;;;;;26.62;26.96;102011.94;5076477;28;935;-19
2022/12/28 04:36:21;;;;;;;;;;;;;;;26.69;26.80;102028.41;5076841;28;1020;-20
2022/12/28 04:38:46;;;;;;;;;;;;;;;26.78;26.71;102034.72;5076695;28;1096;-20
2022/12/28 04:41:12;;;;;;;;;;;;;;;28.28;24.97;102047.00;5076392;28;1178;-20
2022/12/28 04:43:38;;;;;;;;;;;;;;;28.09;24.61;102048.06;5075858;28;2698;-20
2022/12/28 04:46:04;;;;;;;;;;;;;;;27.89;24.27;102056.38;5076549;28;1056;-19
2022/12/28 04:48:30;;;;;;;;;;;;;;;27.67;24.44;102061.22;5076746;28;1131;-19
2022/12/28 04:50:55;;;;;;;;;;;;;;;26.41;18.88;102052.63;5076309;28;1134;-19
2022/12/28 04:53:20;;;;;;;;;;;;;;;25.88;21.20;102052.97;5076102;28;1079;-19
2022/12/28 04:55:46;;;;;;;;;;;;;;;25.40;21.40;102047.41;5065251;28;1485;-21
2022/12/28 04:58:11;;;;;;;;;;;;;;;25.52;19.31;102055.34;5063473;28;1261;-20
2022/12/28 05:00:36;;;;;;;;;;;;;;;26.47;22.05;102059.28;5067278;28;1393;-19
2022/12/28 05:03:02;;;;;;;;;;;;;;;26.39;21.92;102070.81;5062048;28;1890;-19
2022/12/28 05:05:27;;;;;;;;;;;;;;;26.56;22.79;102069.19;5056498;28;1020;-19
2022/12/28 05:07:52;;;;;;;;;;;;;;;26.92;22.50;102076.59;5058500;28;1378;-19
2022/12/28 05:10:18;;;;;;;;;;;;;;;26.69;22.97;102073.44;5060575;28;1175;-19
2022/12/28 05:12:43;;;;;;;;;;;;;;;26.95;22.02;102070.03;5063993;28;1802;-19
2022/12/28 05:15:09;;;;;;;;;;;;;;;26.60;22.92;102065.22;5067328;28;965;-19
2022/12/28 05:17:34;;;;;;;;;;;;;;;26.60;23.44;102070.63;5068099;28;1502;-19
2022/12/28 05:19:59;;;;;;;;;;;;;;;27.89;22.47;102061.78;5075780;28;1035;-19
2022/12/28 05:22:24;;;;;;;;;;;;;;;27.75;22.66;102065.88;5060400;28;1957;-19
2022/12/28 05:24:50;;;;;;;;;;;;;;;28.07;22.54;102074.41;5062788;28;1147;-19
2022/12/28 05:27:15;;;;;;;;;;;;;;;28.23;22.43;102084.50;5063829;28;1203;-19
2022/12/28 05:29:40;;;;;;;;;;;;;;;27.85;22.97;102087.41;5076304;28;1005;-19
2022/12/28 05:32:06;;;;;;;;;;;;;;;27.49;23.79;102083.66;5066660;28;1047;-19
2022/12/28 05:34:31;;;;;;;;;;;;;;;27.48;23.62;102083.81;5062787;28;1103;-19
2022/12/28 05:36:56;;;;;;;;;;;;;;;28.92;22.22;102091.88;5061816;28;1159;-19
2022/12/28 05:39:22;;;;;;;;;;;;;;;28.27;22.84;102091.31;5069412;28;1063;-19
2022/12/28 05:41:47;;;;;;;;;;;;;;;27.83;23.44;102098.41;5055549;28;2059;-19
2022/12/28 05:44:12;;;;;;;;;;;;;;;27.11;24.46;102093.75;5072932;28;1188;-19
2022/12/28 05:46:37;;;;;;;;;;;;;;;26.62;25.14;102095.63;5057566;28;1262;-19
2022/12/28 05:49:03;;;;;;;;;;;;;;;28.68;22.76;102092.56;5068171;28;1132;-19
2022/12/28 05:51:29;;;;;;;;;;;;;;;29.09;22.06;102090.09;5075655;28;1052;-19
2022/12/28 05:53:54;;;;;;;;;;;;;;;28.02;22.72;102088.41;5073652;28;1023;-19
2022/12/28 05:56:20;;;;;;;;;;;;;;;27.42;23.99;102085.31;5069598;28;1437;-19
2022/12/28 05:58:50;;;;;;;;;;;;;;;26.89;24.89;102091.22;5070974;28;1535;-20
2022/12/28 06:01:17;;;;;;;;;;;;;;;27.16;24.58;102104.91;5071053;28;1124;-19
2022/12/28 06:03:42;;;;;;;;;;;;;;;27.10;25.08;102108.22;5067110;28;1980;-19
2022/12/28 06:06:11;;;;;;;;;;;;;;;27.07;25.16;102111.22;5058195;28;1108;-19
2022/12/28 06:08:36;;;;;;;;;;;;;;;28.60;23.05;102113.19;5062931;28;1055;-19
2022/12/28 06:11:02;;;;;;;;;;;;;;;28.47;23.34;102110.94;5061468;28;1083;-19
2022/12/28 06:13:27;;;;;;;;;;;;;;;28.03;23.80;102102.81;5060083;28;2221;-19
2022/12/28 06:15:53;;;;;;;;;;;;;;;27.57;24.46;102107.25;5073309;28;1121;-19
2022/12/28 06:18:18;;;;;;;;;;;;;;;27.25;24.58;102113.97;5063781;28;1151;-19
2022/12/28 06:20:43;;;;;;;;;;;;;;;27.05;25.33;102113.22;5057970;28;1045;-19
2022/12/28 06:23:09;;;;;;;;;;;;;;;26.99;25.41;102114.66;5074362;28;1906;-19
2022/12/28 06:25:35;;;;;;;;;;;;;;;27.25;25.05;102119.38;5058256;28;918;-19
2022/12/28 06:28:01;;;;;;;;;;;;;;;27.03;25.27;102129.56;5064750;28;1092;-19
2022/12/28 06:30:26;;;;;;;;;;;;;;;28.56;23.34;102130.75;5072124;28;1484;-19
2022/12/28 06:32:51;;;;;;;;;;;;;;;28.18;23.63;102127.41;5059198;28;1031;-19
2022/12/28 06:35:18;;;;;;;;;;;;;;;27.81;24.23;102132.00;5070172;28;857;-19
2022/12/28 06:37:43;;;;;;;;;;;;;;;27.30;25.32;102132.44;5064373;28;1211;-19
2022/12/28 06:40:08;;;;;;;;;;;;;;;27.26;25.26;102132.75;5073070;28;1000;-20
2022/12/28 06:42:34;;;;;;;;;;;;;;;27.41;25.11;102132.22;5055292;28;2011;-19
2022/12/28 06:44:59;;;;;;;;;;;;;;;28.26;23.80;102135.59;5056636;28;1040;-19
2022/12/28 06:47:25;;;;;;;;;;;;;;;28.15;24.20;102141.25;5074622;28;1062;-19
2022/12/28 06:49:50;;;;;;;;;;;;;;;28.57;23.62;102139.75;5046027;28;1215;-20
2022/12/28 06:52:15;;;;;;;;;;;;;;;28.43;23.77;102147.44;5067672;28;1123;-20
2022/12/28 06:54:40;;;;;;;;;;;;;;;28.24;24.02;102149.28;5075899;28;1071;-19
2022/12/28 06:57:06;;;;;;;;;;;;;;;27.59;25.11;102155.75;5065671;28;937;-19
2022/12/28 06:59:31;;;;;;;;;;;;;;;27.44;25.16;102164.38;5070446;28;1131;-19
2022/12/28 07:01:56;;;;;;;;;;;;;;;28.30;24.27;102157.78;5068248;28;1948;-19
2022/12/28 07:04:21;;;;;;;;;;;;;;;28.64;23.58;102156.19;5060198;28;996;-19
2022/12/28 07:06:47;;;;;;;;;;;;;;;28.96;23.19;102160.94;5070037;28;1174;-19
2022/12/28 07:09:13;;;;;;;;;;;;;;;28.54;23.51;102165.28;5070779;28;1096;-19
2022/12/28 07:11:38;;;;;;;;;;;;;;;28.98;23.08;102166.22;5066712;28;1833;-19
2022/12/28 07:14:03;;;;;;;;;;;;;;;29.14;22.64;102170.91;5072400;28;1009;-20
2022/12/28 07:16:29;;;;;;;;;;;;;;;29.15;22.74;102174.44;5068942;28;1017;-20
2022/12/28 07:18:54;;;;;;;;;;;;;;;28.82;23.50;102177.81;5058142;28;1048;-20
2022/12/28 07:21:20;;;;;;;;;;;;;;;28.34;24.26;102173.56;5066476;28;1163;-20
2022/12/28 07:23:46;;;;;;;;;;;;;;;28.65;23.32;102171.41;5077693;28;1905;-19
2022/12/28 07:26:12;;;;;;;;;;;;;;;28.72;23.51;102172.50;5060628;28;921;-19
2022/12/28 07:28:41;;;;;;;;;;;;;;;29.38;22.89;102169.28;5058090;28;1112;-19
2022/12/28 07:31:08;;;;;;;;;;;;;;;28.62;23.64;102175.31;5057761;28;1043;-19
2022/12/28 07:33:34;;;;;;;;;;;;;;;28.87;23.13;102180.88;5074441;28;1505;-19
2022/12/28 07:35:59;;;;;;;;;;;;;;;28.81;23.23;102181.53;5066560;28;1127;-19
2022/12/28 07:38:24;;;;;;;;;;;;;;;28.58;23.73;102177.47;5074724;28;1048;-19
2022/12/28 07:40:50;;;;;;;;;;;;;;;29.99;22.06;102175.56;5077691;28;1019;-20
2022/12/28 07:43:15;;;;;;;;;;;;;;;30.03;22.00;102185.06;5069197;28;1902;-19
2022/12/28 07:45:40;;;;;;;;;;;;;;;29.43;22.69;102185.03;5067518;28;1076;-19
2022/12/28 07:48:05;;;;;;;;;;;;;;;29.10;22.97;102185.78;5066192;28;1126;-19
2022/12/28 07:50:31;;;;;;;;;;;;;;;28.82;23.88;102183.22;5075770;28;1286;-19
2022/12/28 07:52:56;;;;;;;;;;;;;;;29.54;22.55;102192.91;5064901;28;1143;-19
2022/12/28 07:55:23;;;;;;;;;;;;;;;29.17;23.00;102194.09;5073105;28;1175;-19
2022/12/28 07:57:49;;;;;;;;;;;;;;;29.16;23.33;102195.13;5068686;28;1051;-19
2022/12/28 08:00:15;;;;;;;;;;;;;;;30.41;21.57;102193.56;5058166;28;991;-19
2022/12/28 08:02:40;;;;;;;;;;;;;;;29.69;22.33;102200.44;5070867;28;1948;-19
2022/12/28 08:05:06;;;;;;;;;;;;;;;29.58;22.55;102196.13;5065926;28;1000;-19
2022/12/28 08:07:31;;;;;;;;;;;;;;;27.62;25.51;102187.88;5057230;28;1032;-19
2022/12/28 08:09:56;;;;;;;;;;;;;;;29.07;23.21;102199.63;5058207;28;1093;-19
2022/12/28 08:12:22;;;;;;;;;;;;;;;29.71;22.44;102206.53;5071098;28;1841;-19
2022/12/28 08:14:47;;;;;;;;;;;;;;;29.57;22.67;102205.28;5071260;28;1103;-19
2022/12/28 08:17:12;;;;;;;;;;;;;;;29.14;23.25;102203.41;5074815;28;1155;-19
2022/12/28 08:19:37;;;;;;;;;;;;;;;27.69;25.25;102205.22;5076775;28;1043;-19
2022/12/28 08:22:03;;;;;;;;;;;;;;;27.56;25.40;102204.72;5065720;28;1898;-19
2022/12/28 08:24:28;;;;;;;;;;;;;;;27.74;25.49;102207.47;5070566;28;1175;-19
2022/12/28 08:26:53;;;;;;;;;;;;;;;28.88;23.78;102212.38;5076692;28;1035;-19
2022/12/28 08:29:19;;;;;;;;;;;;;;;29.40;23.03;102201.66;5072349;28;1152;-19
2022/12/28 08:31:45;;;;;;;;;;;;;;;29.14;23.39;102207.97;5067835;28;1123;-19
2022/12/28 08:34:12;;;;;;;;;;;;;;;29.58;22.77;102206.97;5076672;28;1087;-19
2022/12/28 08:36:37;;;;;;;;;;;;;;;29.60;22.66;102207.69;5076371;28;1024;-19
2022/12/28 08:39:03;;;;;;;;;;;;;;;28.84;23.83;102202.88;5071463;28;1079;-20
2022/12/28 08:41:28;;;;;;;;;;;;;;;28.05;25.22;102199.00;5057561;28;980;-19
2022/12/28 08:43:54;;;;;;;;;;;;;;;29.04;23.94;102200.81;5070673;28;2186;-20
2022/12/28 08:46:20;;;;;;;;;;;;;;;29.39;23.11;102200.81;5066949;28;1414;-19
2022/12/28 08:48:45;;;;;;;;;;;;;;;29.49;23.06;102200.69;5076340;28;1076;-19
2022/12/28 08:51:12;;;;;;;;;;;;;;;29.88;22.75;102195.72;5076392;28;1043;-19
2022/12/28 08:53:37;;;;;;;;;;;;;;;29.88;22.53;102190.31;5058143;28;1291;-20
2022/12/28 08:56:09;;;;;;;;;;;;;;;29.85;22.48;102194.19;5073122;28;1350;-19
2022/12/28 08:58:34;;;;;;;;;;;;;;;28.44;24.49;102189.75;5061736;28;1291;-19
2022/12/28 09:01:06;;;;;;;;;;;;;;;30.00;22.53;102180.81;5075269;28;1620;-19
2022/12/28 09:03:33;;;;;;;;;;;;;;;29.89;22.61;102184.72;5075653;28;1957;-19
2022/12/28 09:06:00;;;;;;;;;;;;;;;29.66;22.76;102185.31;5076080;28;1015;-19
2022/12/28 09:08:26;;;;;;;;;;;;;;;28.24;24.57;102179.03;5068720;28;1115;-19
2022/12/28 09:10:51;;;;;;;;;;;;;;;27.67;25.72;102179.31;5055474;28;1012;-19
2022/12/28 09:13:16;;;;;;;;;;;;;;;28.14;24.90;102180.16;5062828;28;1843;-19
2022/12/28 09:15:41;;;;;;;;;;;;;;;29.28;23.50;102182.13;5072935;28;1137;-19
2022/12/28 09:18:07;;;;;;;;;;;;;;;29.77;22.72;102178.75;5070990;28;1247;-19
2022/12/28 09:20:33;;;;;;;;;;;;;;;28.91;23.91;102190.38;5075678;28;1059;-19
2022/12/28 09:22:58;;;;;;;;;;;;;;;28.88;24.29;102184.44;5056518;28;1917;-19
2022/12/28 09:25:24;;;;;;;;;;;;;;;29.76;22.73;102181.63;5066681;28;1452;-19
2022/12/28 09:27:49;;;;;;;;;;;;;;;29.98;22.51;102190.97;5063482;28;1153;-19
2022/12/28 09:30:14;;;;;;;;;;;;;;;28.13;25.10;102181.16;5074561;28;1230;-19
2022/12/28 09:32:40;;;;;;;;;;;;;;;28.36;25.19;102186.97;5063802;28;1068;-19
2022/12/28 09:35:05;;;;;;;;;;;;;;;29.13;24.10;102187.31;5055488;28;1067;-19
2022/12/28 09:37:30;;;;;;;;;;;;;;;29.74;22.97;102180.94;5068427;28;1063;-19
2022/12/28 09:39:56;;;;;;;;;;;;;;;29.27;23.73;102178.56;5066888;28;908;-19
2022/12/28 09:42:23;;;;;;;;;;;;;;;28.27;25.09;102180.59;5059917;28;1947;-19
2022/12/28 09:44:54;;;;;;;;;;;;;;;28.08;25.33;102173.47;5066878;28;1128;-19
2022/12/28 09:47:39;;;;;;;;;;;;;;;28.29;25.17;102169.63;5062648;28;2021;-19
2022/12/28 09:50:17;;;;;;;;;;;;;;;29.14;23.77;102175.47;5065725;28;1107;-19
2022/12/28 09:52:48;;;;;;;;;;;;;;;29.29;23.30;102172.97;5074924;28;1086;-19
2022/12/28 09:55:14;;;;;;;;;;;;;;;28.30;24.75;102168.59;5057085;28;1055;-20
2022/12/28 09:57:49;;;;;;;;;;;;;;;28.53;24.39;102166.28;5072355;28;1374;-19
2022/12/28 10:00:16;;;;;;;;;;;;;;;29.51;23.02;102162.56;5055123;28;970;-19
2022/12/28 10:02:41;;;;;;;;;;;;;;;29.74;22.28;102168.25;5057079;28;1898;-20
2022/12/28 10:05:07;;;;;;;;;;;;;;;28.62;24.31;102169.03;5071755;28;1055;-19
2022/12/28 10:07:32;;;;;;;;;;;;;;;28.15;25.00;102155.63;5055942;28;1071;-19
2022/12/28 10:09:57;;;;;;;;;;;;;;;29.15;23.71;102163.59;5055504;28;996;-19
2022/12/28 10:12:25;;;;;;;;;;;;;;;29.67;22.81;102149.06;5040828;28;1889;-20
2022/12/28 10:14:51;;;;;;;;;;;;;;;29.83;22.53;102150.09;5071858;28;1130;-19
2022/12/28 10:17:17;;;;;;;;;;;;;;;30.03;22.36;102142.47;5043809;28;1205;-20
2022/12/28 10:19:45;;;;;;;;;;;;;;;30.23;22.01;102142.16;5031037;28;1196;-19
2022/12/28 10:22:12;;;;;;;;;;;;;;;30.28;22.16;102153.38;5047468;28;1914;-19
2022/12/28 10:24:38;;;;;;;;;;;;;;;30.48;22.11;102154.88;5039926;28;1128;-19
2022/12/28 10:27:04;;;;;;;;;;;;;;;30.47;22.12;102151.31;5047424;28;1272;-20
2022/12/28 10:29:29;;;;;;;;;;;;;;;30.42;22.17;102150.97;5049531;28;1029;-19
2022/12/28 10:32:02;;;;;;;;;;;;;;;30.41;22.04;102157.44;5029265;28;877;-19
2022/12/28 10:34:27;;;;;;;;;;;;;;;30.36;22.17;102148.97;5048744;28;1635;-20
2022/12/28 10:36:53;;;;;;;;;;;;;;;30.38;22.08;102147.75;5038716;28;1402;-20
2022/12/28 10:39:22;;;;;;;;;;;;;;;30.20;22.17;102153.38;5040451;28;996;-20
2022/12/28 10:41:48;;;;;;;;;;;;;;;30.14;22.30;102145.88;5057708;28;2367;-19
2022/12/28 10:44:24;;;;;;;;;;;;;;;30.14;22.56;102149.44;5051487;28;1227;-19
2022/12/28 10:47:12;;;;;;;;;;;;;;;29.56;22.53;102152.06;5039744;28;993;-19
2022/12/28 10:49:38;;;;;;;;;;;;;;;29.49;22.61;102149.16;5039828;28;1159;-19
2022/12/28 10:52:03;;;;;;;;;;;;;;;29.44;22.73;102140.69;5023452;28;1245;-19
2022/12/28 10:54:30;;;;;;;;;;;;;;;29.26;23.03;102144.34;5048955;28;1112;-19
2022/12/28 10:56:55;;;;;;;;;;;;;;;29.07;22.66;102051.50;5057478;28;1145;-20
2022/12/28 10:59:24;;;;;;;;;;;;;;;29.81;22.39;102138.59;5056976;28;1060;-20
2022/12/28 11:01:49;;;;;;;;;;;;;;;29.69;22.41;102129.91;5044822;28;1898;-20
2022/12/28 11:04:19;;;;;;;;;;;;;;;29.77;22.59;102137.22;5052172;28;1248;-20
2022/12/28 11:06:58;;;;;;;;;;;;;;;29.81;22.38;102136.69;5044992;28;1037;-20
2022/12/28 11:09:28;;;;;;;;;;;;;;;29.78;22.54;102128.91;5058103;28;1004;-20
2022/12/28 11:11:54;;;;;;;;;;;;;;;29.88;22.43;102131.44;5038312;28;1893;-20
2022/12/28 11:14:34;;;;;;;;;;;;;;;29.99;22.14;102129.44;5049932;28;1151;-20
2022/12/28 11:17:07;;;;;;;;;;;;;;;30.09;21.73;102135.53;5033849;28;1281;-20
2022/12/28 11:19:33;;;;;;;;;;;;;;;29.99;22.05;102133.00;5027177;28;1132;-20
2022/12/28 11:21:58;;;;;;;;;;;;;;;30.09;21.92;102137.41;5029486;28;1914;-20
2022/12/28 11:24:25;;;;;;;;;;;;;;;30.10;21.58;102126.38;5050992;28;1110;-20
2022/12/28 11:26:51;;;;;;;;;;;;;;;29.94;21.59;102117.25;5020380;28;1111;-20
2022/12/28 11:29:17;;;;;;;;;;;;;;;30.01;21.18;102125.50;5020003;28;1013;-20
2022/12/28 11:31:54;;;;;;;;;;;;;;;29.99;21.47;102113.16;5037695;28;989;-19
2022/12/28 11:34:20;;;;;;;;;;;;;;;30.05;21.23;102115.19;5034885;28;1001;-21
2022/12/28 11:36:46;;;;;;;;;;;;;;;30.10;21.12;102111.94;5049052;28;1002;-19
2022/12/28 11:39:26;;;;;;;;;;;;;;;29.98;20.76;102116.91;5039517;28;1037;-20
2022/12/28 11:41:55;;;;;;;;;;;;;;;29.84;21.11;102115.69;5055478;28;1894;-19
2022/12/28 11:44:29;;;;;;;;;;;;;;;29.72;21.33;102107.03;5043458;28;1277;-19
2022/12/28 11:47:00;;;;;;;;;;;;;;;29.51;20.83;102098.31;5055436;28;1198;-20
2022/12/28 11:49:25;;;;;;;;;;;;;;;29.62;20.71;102108.03;5055474;28;1100;-20
2022/12/28 11:52:11;;;;;;;;;;;;;;;29.59;20.84;102102.97;5039274;28;1076;-20
2022/12/28 11:54:51;;;;;;;;;;;;;;;29.61;20.56;102102.78;5055674;28;1580;-20
2022/12/28 11:57:36;;;;;;;;;;;;;;;29.21;21.83;102111.47;5048205;28;846;-20
2022/12/28 12:00:19;;;;;;;;;;;;;;;29.19;21.66;102106.22;5039728;28;1081;-20
2022/12/28 12:02:48;;;;;;;;;;;;;;;29.05;21.32;102104.13;5037416;28;1898;-20
2022/12/28 12:05:32;;;;;;;;;;;;;;;28.05;23.63;102100.75;5041679;28;1470;-20
2022/12/28 12:07:57;;;;;;;;;;;;;;;27.10;25.12;102095.59;5056262;28;1112;-19
2022/12/28 12:10:26;;;;;;;;;;;;;;;27.06;25.09;102093.34;5044708;28;1151;-20
2022/12/28 12:12:51;;;;;;;;;;;;;;;27.80;24.42;102090.59;5047599;28;1857;-20
2022/12/28 12:15:21;;;;;;;;;;;;;;;28.11;23.95;102086.63;5048401;28;1016;-20
2022/12/28 12:17:47;;;;;;;;;;;;;;;28.83;22.63;102088.25;5034309;28;1160;-20
2022/12/28 12:20:22;;;;;;;;;;;;;;;29.24;22.31;102084.06;5030641;28;1179;-20
2022/12/28 12:22:48;;;;;;;;;;;;;;;28.99;22.63;102081.25;5042744;28;1906;-20
2022/12/28 12:25:16;;;;;;;;;;;;;;;29.10;22.50;102080.09;5051943;28;1129;-20
2022/12/28 12:27:42;;;;;;;;;;;;;;;29.16;22.46;102084.03;5035438;28;1045;-20
2022/12/28 12:30:12;;;;;;;;;;;;;;;28.58;23.11;102082.72;5029956;28;1037;-20
2022/12/28 12:32:58;;;;;;;;;;;;;;;28.31;23.65;102081.03;5034547;28;1188;-20
2022/12/28 12:35:24;;;;;;;;;;;;;;;28.27;23.59;102085.03;5021852;28;1095;-20
2022/12/28 12:38:05;;;;;;;;;;;;;;;28.99;22.35;102075.00;5018761;28;1008;-20
2022/12/28 12:40:37;;;;;;;;;;;;;;;29.26;22.28;102083.88;5036749;28;1156;-19
2022/12/28 12:43:21;;;;;;;;;;;;;;;28.38;23.52;102092.09;5018905;28;2062;-20
2022/12/28 12:45:52;;;;;;;;;;;;;;;29.56;21.75;102087.81;5035549;28;1116;-20
2022/12/28 12:48:41;;;;;;;;;;;;;;;30.00;21.24;102093.13;5049273;28;1160;-20
2022/12/28 12:51:18;;;;;;;;;;;;;;;28.56;22.90;102087.44;5037660;28;1209;-20
2022/12/28 12:53:48;;;;;;;;;;;;;;;27.93;24.15;102092.91;5038023;28;1025;-20
2022/12/28 12:56:28;;;;;;;;;;;;;;;28.23;23.67;102098.88;5030228;28;1137;-20
2022/12/28 12:59:14;;;;;;;;;;;;;;;29.30;22.32;102099.66;5048909;28;1057;-20
2022/12/28 13:01:43;;;;;;;;;;;;;;;29.61;21.58;102103.66;5048848;28;1199;-20
2022/12/28 13:04:13;;;;;;;;;;;;;;;28.51;23.32;102099.78;5029883;28;1964;-20
2022/12/28 13:06:39;;;;;;;;;;;;;;;28.68;23.15;102106.13;5032459;28;1136;-20
2022/12/28 13:09:06;;;;;;;;;;;;;;;29.55;21.74;102102.41;5031036;28;1167;-20
2022/12/28 13:11:34;;;;;;;;;;;;;;;29.63;21.77;102098.88;5055060;28;1017;-19
2022/12/28 13:13:59;;;;;;;;;;;;;;;28.54;23.38;102104.88;5049160;28;2087;-20
2022/12/28 13:16:25;;;;;;;;;;;;;;;28.29;23.70;102104.69;5040618;28;1123;-19
2022/12/28 13:18:57;;;;;;;;;;;;;;;28.56;23.68;102102.84;5047568;28;1156;-19